createdAt,value
2022-08-22T00:01:42.624Z,49.53
2022-08-22T00:02:42.056Z,40.89
2022-08-22T00:02:53.998Z,43.85
2022-08-22T00:02:58.943Z,49.89
2022-08-22T00:03:08.328Z,51.62
2022-08-22T00:04:33.444Z,50.36
2022-08-22T00:07:01.431Z,51.03
2022-08-22T00:09:38.030Z,48.36
2022-08-22T00:12:10.782Z,49.97
2022-08-22T00:14:46.429Z,50.26
2022-08-22T00:17:32.060Z,50.55
2022-08-22T00:20:10.803Z,50.71
2022-08-22T00:22:48.765Z,49.90
2022-08-22T00:25:50.041Z,50.07
2022-08-22T00:28:35.526Z,50.13
2022-08-22T00:31:39.810Z,50.00
2022-08-22T00:34:13.898Z,50.51
2022-08-22T00:36:56.425Z,50.84
2022-08-22T00:39:33.973Z,51.11
2022-08-22T00:42:00.391Z,51.05
2022-08-22T00:45:08.970Z,51.15
2022-08-22T00:47:38.299Z,51.86
2022-08-22T00:50:27.648Z,52.07
2022-08-22T00:53:17.782Z,52.72
2022-08-22T00:56:08.289Z,53.27
2022-08-22T00:58:53.653Z,53.66
2022-08-22T01:01:29.900Z,53.62
2022-08-22T01:04:04.623Z,53.82
2022-08-22T01:07:14.712Z,53.65
2022-08-22T01:10:00.074Z,53.32
2022-08-22T01:12:26.549Z,53.60
2022-08-22T01:15:02.947Z,54.13
2022-08-22T01:18:04.574Z,53.81
2022-08-22T01:20:33.794Z,54.00
2022-08-22T01:23:30.620Z,54.23
2022-08-22T01:26:41.246Z,54.26
2022-08-22T01:29:28.353Z,54.66
2022-08-22T01:32:27.957Z,55.00
2022-08-22T01:35:00.465Z,54.78
2022-08-22T01:38:04.247Z,55.25
2022-08-22T01:40:58.567Z,54.96
2022-08-22T01:44:00.908Z,54.88
2022-08-22T01:46:35.214Z,55.10
2022-08-22T01:49:18.994Z,55.48
2022-08-22T01:51:55.683Z,55.49
2022-08-22T01:55:04.200Z,55.75
2022-08-22T01:57:30.673Z,55.63
2022-08-22T02:00:01.944Z,55.88
2022-08-22T02:03:00.282Z,55.60
2022-08-22T02:05:31.642Z,55.55
2022-08-22T02:08:03.880Z,55.83
2022-08-22T02:11:02.292Z,56.05
2022-08-22T02:13:56.528Z,56.02
2022-08-22T02:16:38.370Z,56.36
2022-08-22T02:19:04.839Z,56.11
2022-08-22T02:21:49.785Z,56.43
2022-08-22T02:24:34.808Z,56.53
2022-08-22T02:27:12.936Z,56.71
2022-08-22T02:30:08.429Z,56.55
2022-08-22T02:32:40.816Z,56.88
2022-08-22T02:35:14.247Z,56.35
2022-08-22T02:37:58.062Z,56.71
2022-08-22T02:40:34.191Z,56.61
2022-08-22T02:43:11.166Z,56.38
2022-08-22T02:45:53.317Z,55.84
2022-08-22T02:48:19.719Z,55.99
2022-08-22T02:51:21.258Z,55.66
2022-08-22T02:54:06.302Z,55.72
2022-08-22T02:56:39.417Z,56.20
2022-08-22T02:59:27.219Z,56.84
2022-08-22T03:01:55.549Z,57.39
2022-08-22T03:04:30.549Z,57.58
2022-08-22T03:07:11.979Z,57.18
2022-08-22T03:09:51.363Z,56.89
2022-08-22T03:12:32.194Z,57.26
2022-08-22T03:15:07.374Z,57.20
2022-08-22T03:17:47.930Z,57.20
2022-08-22T03:20:23.171Z,57.29
2022-08-22T03:23:04.475Z,57.55
2022-08-22T03:25:51.268Z,57.57
2022-08-22T03:28:29.063Z,57.45
2022-08-22T03:30:59.197Z,57.44
2022-08-22T03:33:31.049Z,57.17
2022-08-22T03:35:59.678Z,57.47
2022-08-22T03:38:34.687Z,57.67
2022-08-22T03:41:12.957Z,57.77
2022-08-22T03:43:51.670Z,57.59
2022-08-22T03:46:48.863Z,57.17
2022-08-22T03:49:49.418Z,56.88
2022-08-22T03:53:15.407Z,56.71
2022-08-22T03:55:51.643Z,57.48
2022-08-22T03:58:46.602Z,57.70
2022-08-22T04:01:31.732Z,57.88
2022-08-22T04:04:07.266Z,57.99
2022-08-22T04:06:49.405Z,57.62
2022-08-22T04:09:20.046Z,57.26
2022-08-22T04:11:53.478Z,57.31
2022-08-22T04:14:25.671Z,57.29
2022-08-22T04:17:37.434Z,56.70
2022-08-22T04:20:09.840Z,56.10
2022-08-22T04:22:50.995Z,56.99
2022-08-22T04:25:23.367Z,57.45
2022-08-22T04:28:27.544Z,57.29
2022-08-22T04:31:03.348Z,57.33
2022-08-22T04:33:40.128Z,57.48
2022-08-22T04:36:32.455Z,57.59
2022-08-22T04:39:13.163Z,57.55
2022-08-22T04:41:51.650Z,57.46
2022-08-22T04:44:28.150Z,57.19
2022-08-22T04:47:05.152Z,57.28
2022-08-22T04:49:40.182Z,57.11
2022-08-22T04:52:24.403Z,57.12
2022-08-22T04:55:17.994Z,57.06
2022-08-22T04:58:01.723Z,57.11
2022-08-22T05:00:41.636Z,57.31
2022-08-22T05:03:13.064Z,56.97
2022-08-22T05:05:41.555Z,57.23
2022-08-22T05:08:13.263Z,57.13
2022-08-22T05:10:46.431Z,57.55
2022-08-22T05:13:29.415Z,57.39
2022-08-22T05:15:59.647Z,56.90
2022-08-22T05:18:32.149Z,56.73
2022-08-22T05:21:01.928Z,56.83
2022-08-22T05:23:36.322Z,56.45
2022-08-22T05:26:06.217Z,55.93
2022-08-22T05:28:43.754Z,55.84
2022-08-22T05:31:15.276Z,56.88
2022-08-22T05:33:53.004Z,57.07
2022-08-22T05:36:25.246Z,57.18
2022-08-22T05:38:56.962Z,56.48
2022-08-22T05:41:27.612Z,56.00
2022-08-22T05:43:55.512Z,55.82
2022-08-22T05:46:48.003Z,55.70
2022-08-22T05:49:20.909Z,55.66
2022-08-22T05:52:20.322Z,55.97
2022-08-22T05:55:06.318Z,55.43
2022-08-22T05:57:38.447Z,55.61
2022-08-22T06:00:11.457Z,55.66
2022-08-22T06:03:06.374Z,55.54
2022-08-22T06:05:39.009Z,55.21
2022-08-22T06:08:20.176Z,55.37
2022-08-22T06:10:56.954Z,55.04
2022-08-22T06:13:32.518Z,55.13
2022-08-22T06:16:21.464Z,54.84
2022-08-22T06:18:50.246Z,54.69
2022-08-22T06:21:32.537Z,54.89
2022-08-22T06:24:03.390Z,54.82
2022-08-22T06:26:38.213Z,54.58
2022-08-22T06:29:07.309Z,53.97
2022-08-22T06:31:50.440Z,53.22
2022-08-22T06:34:28.292Z,52.09
2022-08-22T06:36:57.598Z,51.53
2022-08-22T06:39:30.166Z,51.75
2022-08-22T06:42:10.320Z,51.54
2022-08-22T06:45:15.098Z,50.86
2022-08-22T06:48:07.879Z,50.65
2022-08-22T06:50:41.257Z,50.57
2022-08-22T06:53:21.626Z,49.83
2022-08-22T06:55:52.943Z,49.83
2022-08-22T06:58:41.931Z,49.88
2022-08-22T07:01:12.897Z,48.98
2022-08-22T07:04:05.052Z,48.88
2022-08-22T07:06:35.911Z,48.09
2022-08-22T07:09:05.781Z,48.22
2022-08-22T07:11:38.528Z,47.79
2022-08-22T07:14:08.340Z,49.22
2022-08-22T07:16:53.686Z,47.60
2022-08-22T07:19:33.134Z,46.11
2022-08-22T07:22:11.070Z,46.81
2022-08-22T07:24:46.747Z,46.50
2022-08-22T07:27:16.002Z,46.25
2022-08-22T07:30:05.014Z,44.88
2022-08-22T07:32:51.817Z,43.55
2022-08-22T07:35:21.399Z,42.75
2022-08-22T07:38:15.677Z,42.74
2022-08-22T07:40:50.949Z,42.41
2022-08-22T07:43:31.156Z,45.13
2022-08-22T07:46:14.674Z,43.80
2022-08-22T07:49:09.610Z,42.78
2022-08-22T07:51:44.435Z,43.42
2022-08-22T07:54:14.762Z,41.56
2022-08-22T07:56:52.187Z,41.67
2022-08-22T07:59:21.394Z,40.54
2022-08-22T08:01:54.430Z,41.59
2022-08-22T08:04:26.167Z,41.63
2022-08-22T08:06:56.455Z,40.08
2022-08-22T08:09:26.415Z,39.79
2022-08-22T08:11:54.319Z,39.74
2022-08-22T08:14:24.068Z,40.41
2022-08-22T08:17:10.652Z,40.51
2022-08-22T08:19:41.186Z,39.58
2022-08-22T08:22:07.965Z,39.01
2022-08-22T08:24:42.599Z,39.15
2022-08-22T08:27:35.477Z,39.61
2022-08-22T08:30:17.067Z,40.45
2022-08-22T08:32:47.864Z,38.03
2022-08-22T08:35:28.298Z,38.76
2022-08-22T08:38:10.409Z,38.53
2022-08-22T08:41:30.910Z,38.72
2022-08-22T08:44:03.378Z,38.73
2022-08-22T08:47:14.226Z,38.88
2022-08-22T08:49:52.279Z,39.21
2022-08-22T08:52:54.480Z,39.12
2022-08-22T08:55:42.494Z,39.40
2022-08-22T08:58:38.190Z,38.69
2022-08-22T09:01:34.709Z,38.54
2022-08-22T09:04:15.144Z,39.27
2022-08-22T09:06:42.534Z,39.21
2022-08-22T09:09:41.615Z,38.27
2022-08-22T09:15:38.914Z,38.11
2022-08-22T09:18:26.964Z,37.16
2022-08-22T09:21:02.465Z,37.75
2022-08-22T09:23:36.579Z,36.79
2022-08-22T09:26:19.025Z,36.91
2022-08-22T09:28:54.252Z,36.91
2022-08-22T09:34:31.274Z,36.82
2022-08-22T09:37:27.274Z,37.74
2022-08-22T09:40:19.587Z,36.91
2022-08-22T09:43:01.869Z,38.35
2022-08-22T09:45:48.822Z,38.15
2022-08-22T09:48:28.790Z,37.05
2022-08-22T09:51:28.697Z,36.85
2022-08-22T09:54:08.391Z,37.52
2022-08-22T09:56:35.499Z,38.37
2022-08-22T09:59:20.708Z,37.71
2022-08-22T10:01:57.676Z,38.00
2022-08-22T10:04:42.019Z,36.25
2022-08-22T10:07:35.893Z,38.20
2022-08-22T10:10:15.745Z,35.35
2022-08-22T10:13:19.841Z,36.44
2022-08-22T10:16:08.041Z,35.77
2022-08-22T10:18:53.778Z,36.55
2022-08-22T10:21:21.146Z,36.25
2022-08-22T10:24:07.256Z,36.15
2022-08-22T10:26:48.288Z,36.69
2022-08-22T10:29:37.909Z,35.38
2022-08-22T10:32:14.592Z,37.07
2022-08-22T10:34:47.322Z,34.29
2022-08-22T10:37:39.692Z,36.38
2022-08-22T10:40:32.497Z,36.21
2022-08-22T10:43:18.203Z,36.21
2022-08-22T10:45:48.341Z,36.49
2022-08-22T10:48:36.362Z,34.71
2022-08-22T10:51:16.409Z,36.85
2022-08-22T10:53:56.346Z,35.37
2022-08-22T10:56:32.103Z,35.79
2022-08-22T10:59:25.985Z,33.80
2022-08-22T11:02:36.211Z,34.20
2022-08-22T11:05:27.338Z,31.95
2022-08-22T11:08:09.824Z,33.53
2022-08-22T11:10:54.945Z,34.46
2022-08-22T11:13:43.293Z,36.00
2022-08-22T11:16:27.348Z,34.95
2022-08-22T11:19:31.055Z,35.80
2022-08-22T11:22:25.492Z,35.46
2022-08-22T11:25:05.056Z,32.44
2022-08-22T11:28:10.515Z,30.94
2022-08-22T11:30:57.740Z,32.12
2022-08-22T11:33:47.300Z,30.44
2022-08-22T11:36:46.666Z,32.15
2022-08-22T11:39:34.660Z,33.38
2022-08-22T11:42:32.174Z,34.89
2022-08-22T11:45:06.622Z,35.60
2022-08-22T11:48:08.797Z,34.09
2022-08-22T11:50:42.200Z,33.46
2022-08-22T11:53:22.730Z,34.16
2022-08-22T11:56:13.325Z,34.04
2022-08-22T11:59:20.827Z,34.09
2022-08-22T12:02:04.228Z,34.31
2022-08-22T12:04:51.993Z,34.67
2022-08-22T12:07:32.381Z,34.86
2022-08-22T12:10:04.730Z,34.83
2022-08-22T12:12:42.441Z,35.74
2022-08-22T12:15:24.419Z,35.61
2022-08-22T12:18:25.025Z,35.12
2022-08-22T12:21:02.683Z,35.21
2022-08-22T12:23:50.248Z,35.89
2022-08-22T12:26:25.866Z,36.08
2022-08-22T12:29:03.281Z,35.16
2022-08-22T12:32:16.464Z,36.48
2022-08-22T12:35:14.124Z,36.03
2022-08-22T12:38:26.566Z,34.09
2022-08-22T12:40:55.943Z,35.37
2022-08-22T12:43:32.320Z,35.18
2022-08-22T12:46:17.458Z,34.62
2022-08-22T12:48:53.415Z,35.24
2022-08-22T12:51:38.075Z,35.01
2022-08-22T12:54:36.782Z,35.24
2022-08-22T12:57:24.394Z,34.80
2022-08-22T13:00:35.062Z,34.79
2022-08-22T13:03:10.016Z,35.82
2022-08-22T13:05:40.881Z,34.95
2022-08-22T13:08:29.635Z,34.13
2022-08-22T13:11:01.454Z,34.58
2022-08-22T13:13:56.014Z,35.47
2022-08-22T13:16:25.496Z,34.94
2022-08-22T13:18:57.160Z,35.19
2022-08-22T13:21:31.520Z,35.49
2022-08-22T13:24:10.509Z,34.69
2022-08-22T13:26:46.013Z,34.77
2022-08-22T13:29:39.349Z,35.40
2022-08-22T13:32:23.562Z,34.80
2022-08-22T13:34:56.475Z,35.11
2022-08-22T13:37:31.445Z,35.56
2022-08-22T13:40:04.385Z,35.75
2022-08-22T13:42:36.125Z,35.99
2022-08-22T13:45:14.484Z,35.35
2022-08-22T13:47:50.564Z,35.23
2022-08-22T13:50:22.350Z,35.28
2022-08-22T13:52:55.263Z,34.72
2022-08-22T13:55:34.103Z,35.82
2022-08-22T13:58:33.944Z,34.55
2022-08-22T14:01:07.272Z,35.07
2022-08-22T14:03:45.447Z,36.15
2022-08-22T14:06:37.494Z,36.01
2022-08-22T14:09:17.364Z,35.50
2022-08-22T14:12:19.013Z,34.25
2022-08-22T14:14:52.385Z,35.57
2022-08-22T14:17:24.462Z,35.73
2022-08-22T14:19:58.755Z,36.04
2022-08-22T14:22:32.620Z,36.28
2022-08-22T14:25:07.516Z,36.98
2022-08-22T14:27:39.771Z,36.46
2022-08-22T14:30:13.360Z,36.87
2022-08-22T14:33:00.123Z,36.88
2022-08-22T14:35:37.686Z,37.07
2022-08-22T14:38:31.768Z,37.28
2022-08-22T14:41:06.163Z,37.34
2022-08-22T14:43:32.578Z,37.20
2022-08-22T14:46:18.101Z,37.04
2022-08-22T14:49:07.723Z,37.28
2022-08-22T14:51:37.971Z,37.75
2022-08-22T14:54:21.665Z,37.77
2022-08-22T14:56:50.866Z,37.01
2022-08-22T14:59:36.634Z,36.85
2022-08-22T15:02:14.070Z,36.48
2022-08-22T15:04:52.845Z,36.24
2022-08-22T15:07:32.528Z,37.15
2022-08-22T15:10:08.135Z,37.50
2022-08-22T15:12:49.465Z,37.38
2022-08-22T15:15:53.274Z,37.05
2022-08-22T15:18:28.484Z,38.04
2022-08-22T15:21:11.400Z,37.80
2022-08-22T15:23:45.367Z,37.93
2022-08-22T15:26:39.636Z,37.94
2022-08-22T15:29:30.275Z,38.41
2022-08-22T15:32:03.313Z,38.85
2022-08-22T15:34:38.181Z,38.48
2022-08-22T15:37:20.470Z,38.11
2022-08-22T15:40:12.621Z,37.29
2022-08-22T15:42:51.013Z,36.98
2022-08-22T15:45:33.892Z,36.52
2022-08-22T15:48:07.145Z,37.68
2022-08-22T15:50:40.613Z,36.58
2022-08-22T15:53:11.447Z,36.94
2022-08-22T15:55:38.002Z,37.26
2022-08-22T15:58:20.217Z,37.81
2022-08-22T16:01:19.160Z,38.24
2022-08-22T16:04:02.023Z,37.86
2022-08-22T16:06:52.269Z,38.01
2022-08-22T16:09:51.746Z,37.42
2022-08-22T16:12:33.586Z,37.60
2022-08-22T16:15:01.900Z,36.92
2022-08-22T16:17:28.403Z,36.72
2022-08-22T16:20:12.094Z,36.65
2022-08-22T16:23:07.390Z,37.25
2022-08-22T16:25:45.806Z,37.40
2022-08-22T16:28:56.891Z,38.30
2022-08-22T16:31:24.946Z,37.73
2022-08-22T16:33:51.552Z,37.98
2022-08-22T16:36:20.834Z,37.46
2022-08-22T16:38:58.706Z,37.69
2022-08-22T16:41:41.860Z,38.22
2022-08-22T16:44:22.669Z,38.28
2022-08-22T16:46:52.712Z,38.38
2022-08-22T16:49:31.845Z,38.56
2022-08-22T16:52:26.106Z,39.22
2022-08-22T16:54:58.734Z,39.40
2022-08-22T16:57:31.150Z,39.58
2022-08-22T17:00:12.943Z,39.16
2022-08-22T17:03:13.568Z,38.61
2022-08-22T17:06:03.715Z,39.16
2022-08-22T17:09:17.459Z,40.33
2022-08-22T17:12:09.312Z,40.25
2022-08-22T17:15:06.786Z,40.63
2022-08-22T17:17:51.291Z,40.48
2022-08-22T17:20:35.765Z,41.03
2022-08-22T17:23:20.861Z,40.95
2022-08-22T17:26:27.960Z,40.92
2022-08-22T17:29:25.357Z,40.80
2022-08-22T17:32:15.950Z,40.25
2022-08-22T17:34:56.938Z,41.11
2022-08-22T17:37:54.924Z,41.00
2022-08-22T17:40:33.502Z,41.41
2022-08-22T17:43:15.162Z,41.68
2022-08-22T17:45:48.850Z,41.72
2022-08-22T17:48:20.497Z,40.68
2022-08-22T17:50:54.951Z,42.24
2022-08-22T17:53:24.589Z,42.07
2022-08-22T17:56:00.733Z,41.75
2022-08-22T17:58:43.527Z,41.99
2022-08-22T18:01:31.208Z,42.16
2022-08-22T18:04:01.418Z,42.78
2022-08-22T18:06:33.114Z,42.42
2022-08-22T18:09:20.856Z,42.21
2022-08-22T18:12:15.648Z,42.88
2022-08-22T18:14:54.437Z,43.10
2022-08-22T18:17:47.182Z,42.45
2022-08-22T18:20:24.823Z,42.47
2022-08-22T18:23:00.964Z,42.65
2022-08-22T18:25:40.699Z,42.07
2022-08-22T18:28:26.980Z,42.53
2022-08-22T18:31:27.329Z,43.10
2022-08-22T18:34:06.359Z,43.05
2022-08-22T18:36:38.753Z,43.16
2022-08-22T18:39:14.936Z,43.66
2022-08-22T18:41:45.397Z,43.44
2022-08-22T18:44:18.251Z,43.74
2022-08-22T18:46:47.835Z,43.91
2022-08-22T18:49:20.929Z,44.29
2022-08-22T18:52:19.452Z,44.61
2022-08-22T18:55:17.804Z,44.85
2022-08-22T18:57:53.997Z,45.33
2022-08-22T19:00:25.983Z,46.16
2022-08-22T19:03:14.092Z,46.21
2022-08-22T19:05:52.973Z,47.07
2022-08-22T19:08:38.923Z,46.93
2022-08-22T19:11:35.131Z,47.30
2022-08-22T19:14:16.022Z,47.36
2022-08-22T19:17:23.777Z,48.21
2022-08-22T19:20:08.934Z,48.10
2022-08-22T19:22:36.762Z,47.63
2022-08-22T19:25:12.867Z,47.41
2022-08-22T19:27:44.650Z,48.41
2022-08-22T19:30:33.992Z,47.97
2022-08-22T19:33:03.990Z,49.02
2022-08-22T19:36:05.640Z,48.92
2022-08-22T19:38:56.352Z,48.57
2022-08-22T19:41:42.369Z,48.90
2022-08-22T19:44:37.738Z,48.73
2022-08-22T19:47:18.063Z,48.74
2022-08-22T19:49:55.130Z,48.85
2022-08-22T19:53:09.796Z,48.85
2022-08-22T19:55:36.702Z,48.93
2022-08-22T19:58:03.125Z,49.21
2022-08-22T20:01:06.885Z,48.24
2022-08-22T20:03:42.398Z,47.60
2022-08-22T20:06:44.332Z,46.31
2022-08-22T20:09:14.005Z,45.55
2022-08-22T20:11:47.622Z,46.04
2022-08-22T20:14:32.599Z,45.42
2022-08-22T20:16:59.057Z,45.77
2022-08-22T20:20:16.415Z,45.59
2022-08-22T20:22:42.453Z,45.86
2022-08-22T20:25:33.391Z,45.22
2022-08-22T20:28:03.936Z,45.38
2022-08-22T20:30:41.018Z,45.20
2022-08-22T20:33:13.912Z,44.72
2022-08-22T20:36:24.230Z,45.18
2022-08-22T20:39:00.521Z,45.78
2022-08-22T20:41:36.958Z,46.07
2022-08-22T20:44:25.579Z,45.61
2022-08-22T20:47:07.754Z,46.27
2022-08-22T20:49:44.806Z,46.19
2022-08-22T20:52:24.002Z,45.98
2022-08-22T20:55:12.651Z,46.82
2022-08-22T20:57:48.025Z,46.64
2022-08-22T21:00:22.261Z,47.32
2022-08-22T21:03:07.260Z,47.24
2022-08-22T21:05:43.397Z,48.69
2022-08-22T21:08:15.487Z,48.84
2022-08-22T21:11:01.431Z,48.82
2022-08-22T21:13:27.912Z,49.13
2022-08-22T21:16:02.358Z,48.95
2022-08-22T21:18:33.413Z,50.25
2022-08-22T21:21:12.754Z,50.64
2022-08-22T21:23:47.393Z,50.45
2022-08-22T21:26:19.569Z,50.12
2022-08-22T21:28:57.170Z,50.14
2022-08-22T21:31:26.959Z,51.68
2022-08-22T21:33:55.644Z,51.62
2022-08-22T21:36:25.672Z,52.19
2022-08-22T21:39:03.557Z,52.90
2022-08-22T21:41:47.175Z,53.08
2022-08-22T21:44:26.073Z,52.84
2022-08-22T21:46:53.495Z,54.08
2022-08-22T21:49:26.554Z,53.93
2022-08-22T21:51:53.639Z,54.85
2022-08-22T21:54:31.199Z,54.56
2022-08-22T21:57:11.091Z,54.44
2022-08-22T21:59:51.790Z,54.99
2022-08-22T22:02:34.274Z,54.53
2022-08-22T22:05:08.197Z,54.18
2022-08-22T22:07:40.125Z,54.22
2022-08-22T22:10:09.641Z,54.38
2022-08-22T22:12:40.766Z,56.27
2022-08-22T22:15:08.149Z,58.65
2022-08-22T22:17:34.618Z,57.54
2022-08-22T22:20:01.125Z,58.31
2022-08-22T22:22:27.560Z,58.70
2022-08-22T22:24:54.058Z,58.32
2022-08-22T22:27:20.567Z,58.88
2022-08-22T22:29:47.051Z,58.63
2022-08-22T22:32:13.542Z,59.08
2022-08-22T22:34:40.045Z,59.10
2022-08-22T22:37:08.327Z,59.63
2022-08-22T22:39:38.771Z,58.90
2022-08-22T22:42:05.816Z,57.67
2022-08-22T22:44:32.466Z,58.37
2022-08-22T22:47:02.143Z,59.27
2022-08-22T22:49:30.968Z,60.39
2022-08-22T22:51:59.185Z,60.96
2022-08-22T22:54:27.008Z,61.15
2022-08-22T22:56:54.556Z,60.46
2022-08-22T22:59:24.758Z,60.33
2022-08-22T23:02:06.188Z,60.36
2022-08-22T23:04:34.175Z,59.86
2022-08-22T23:07:00.865Z,59.45
2022-08-22T23:09:38.029Z,58.16
2022-08-22T23:12:11.072Z,57.55
2022-08-22T23:14:37.529Z,57.85
2022-08-22T23:17:05.069Z,56.71
2022-08-22T23:19:31.839Z,56.56
2022-08-22T23:22:00.997Z,56.26
2022-08-22T23:24:29.835Z,55.96
2022-08-22T23:26:57.033Z,56.23
2022-08-22T23:29:23.650Z,55.91
2022-08-22T23:31:56.276Z,55.88
2022-08-22T23:34:26.047Z,55.84
2022-08-22T23:36:55.212Z,56.03
2022-08-22T23:39:23.822Z,56.67
2022-08-22T23:41:50.889Z,56.33
2022-08-22T23:44:21.416Z,56.12
2022-08-22T23:46:48.124Z,56.29
2022-08-22T23:49:15.646Z,56.82
2022-08-22T23:51:43.884Z,56.70
2022-08-22T23:54:11.545Z,56.60
2022-08-22T23:56:41.620Z,56.31
2022-08-22T23:59:12.466Z,57.11
